sensor_id;sensor_type;location;lat;lon;timestamp;pressure;altitude;pressure_sealevel;temperature;humidity
54808;BME280;40708;50.364;7.550;2023-05-21T00:00:38;100805.44;;;14.46;100.00
54808;BME280;40708;50.364;7.550;2023-05-21T00:03:04;100806.44;;;14.38;100.00
54808;BME280;40708;50.364;7.550;2023-05-21T00:05:29;100818.91;;;14.37;100.00
54808;BME280;40708;50.364;7.550;2023-05-21T00:07:55;100821.56;;;14.37;100.00
54808;BME280;40708;50.364;7.550;2023-05-21T00:10:20;100826.91;;;14.37;100.00
54808;BME280;40708;50.364;7.550;2023-05-21T00:12:45;100819.78;;;14.38;100.00
54808;BME280;40708;50.364;7.550;2023-05-21T00:15:11;100811.78;;;14.38;100.00
54808;BME280;40708;50.364;7.550;2023-05-21T00:17:36;100817.13;;;14.38;100.00
54808;BME280;40708;50.364;7.550;2023-05-21T00:20:05;100813.56;;;14.37;100.00
54808;BME280;40708;50.364;7.550;2023-05-21T00:22:31;100796.63;;;14.35;100.00
54808;BME280;40708;50.364;7.550;2023-05-21T00:24:58;100805.59;;;14.28;100.00
54808;BME280;40708;50.364;7.550;2023-05-21T00:27:23;100807.34;;;14.30;100.00
54808;BME280;40708;50.364;7.550;2023-05-21T00:29:48;100797.56;;;14.31;100.00
54808;BME280;40708;50.364;7.550;2023-05-21T00:32:13;100802.88;;;14.31;100.00
54808;BME280;40708;50.364;7.550;2023-05-21T00:34:39;100802.00;;;14.30;100.00
54808;BME280;40708;50.364;7.550;2023-05-21T00:37:04;100797.56;;;14.29;100.00
54808;BME280;40708;50.364;7.550;2023-05-21T00:39:29;100800.25;;;14.28;100.00
54808;BME280;40708;50.364;7.550;2023-05-21T00:41:55;100799.38;;;14.26;100.00
54808;BME280;40708;50.364;7.550;2023-05-21T00:44:21;100801.19;;;14.22;100.00
54808;BME280;40708;50.364;7.550;2023-05-21T00:46:48;100799.38;;;14.24;100.00
54808;BME280;40708;50.364;7.550;2023-05-21T00:49:18;100803.84;;;14.22;100.00
54808;BME280;40708;50.364;7.550;2023-05-21T00:51:43;100811.00;;;14.16;100.00
54808;BME280;40708;50.364;7.550;2023-05-21T00:54:10;100813.69;;;14.16;100.00
54808;BME280;40708;50.364;7.550;2023-05-21T00:56:35;100819.94;;;14.15;100.00
54808;BME280;40708;50.364;7.550;2023-05-21T00:59:01;100823.50;;;14.11;100.00
54808;BME280;40708;50.364;7.550;2023-05-21T01:01:30;100830.66;;;14.10;100.00
54808;BME280;40708;50.364;7.550;2023-05-21T01:04:01;100842.22;;;14.09;100.00
54808;BME280;40708;50.364;7.550;2023-05-21T01:06:26;100836.00;;;14.10;100.00
54808;BME280;40708;50.364;7.550;2023-05-21T01:08:58;100836.84;;;14.12;100.00
54808;BME280;40708;50.364;7.550;2023-05-21T01:11:41;100841.31;;;14.12;100.00
54808;BME280;40708;50.364;7.550;2023-05-21T01:14:09;100841.28;;;14.13;100.00
54808;BME280;40708;50.364;7.550;2023-05-21T01:16:39;100842.19;;;14.11;100.00
54808;BME280;40708;50.364;7.550;2023-05-21T01:19:07;100844.84;;;14.11;100.00
54808;BME280;40708;50.364;7.550;2023-05-21T01:21:36;100845.78;;;14.08;100.00
54808;BME280;40708;50.364;7.550;2023-05-21T01:24:05;100848.47;;;14.07;100.00
54808;BME280;40708;50.364;7.550;2023-05-21T01:26:32;100845.81;;;14.02;100.00
54808;BME280;40708;50.364;7.550;2023-05-21T01:28:58;100848.47;;;14.02;100.00
54808;BME280;40708;50.364;7.550;2023-05-21T01:31:30;100854.78;;;13.97;100.00
54808;BME280;40708;50.364;7.550;2023-05-21T01:34:00;100867.22;;;13.96;100.00
54808;BME280;40708;50.364;7.550;2023-05-21T01:36:33;100869.03;;;13.91;100.00
54808;BME280;40708;50.364;7.550;2023-05-21T01:39:06;100877.94;;;13.87;100.00
54808;BME280;40708;50.364;7.550;2023-05-21T01:41:36;100875.28;;;13.86;100.00
54808;BME280;40708;50.364;7.550;2023-05-21T01:44:02;100877.97;;;13.86;100.00
54808;BME280;40708;50.364;7.550;2023-05-21T01:46:32;100885.06;;;13.82;100.00
54808;BME280;40708;50.364;7.550;2023-05-21T01:48:58;100890.44;;;13.79;100.00
54808;BME280;40708;50.364;7.550;2023-05-21T01:51:24;100901.09;;;13.79;100.00
54808;BME280;40708;50.364;7.550;2023-05-21T01:53:50;100904.66;;;13.77;100.00
54808;BME280;40708;50.364;7.550;2023-05-21T01:56:15;100915.38;;;13.72;100.00
54808;BME280;40708;50.364;7.550;2023-05-21T01:58:40;100911.81;;;13.71;100.00
54808;BME280;40708;50.364;7.550;2023-05-21T02:01:08;100921.59;;;13.69;100.00
54808;BME280;40708;50.364;7.550;2023-05-21T02:03:33;100918.94;;;13.65;100.00
54808;BME280;40708;50.364;7.550;2023-05-21T02:05:58;100920.69;;;13.67;100.00
54808;BME280;40708;50.364;7.550;2023-05-21T02:08:23;100936.72;;;13.66;100.00
54808;BME280;40708;50.364;7.550;2023-05-21T02:10:49;100931.41;;;13.63;100.00
54808;BME280;40708;50.364;7.550;2023-05-21T02:13:15;100934.94;;;13.62;100.00
54808;BME280;40708;50.364;7.550;2023-05-21T02:15:44;100933.19;;;13.61;100.00
54808;BME280;40708;50.364;7.550;2023-05-21T02:18:09;100942.09;;;13.54;100.00
54808;BME280;40708;50.364;7.550;2023-05-21T02:20:35;100950.06;;;13.57;100.00
54808;BME280;40708;50.364;7.550;2023-05-21T02:23:00;100949.22;;;13.52;100.00
54808;BME280;40708;50.364;7.550;2023-05-21T02:25:25;100952.75;;;13.51;100.00
54808;BME280;40708;50.364;7.550;2023-05-21T02:27:51;100950.97;;;13.51;100.00
54808;BME280;40708;50.364;7.550;2023-05-21T02:30:18;100956.31;;;13.48;100.00
54808;BME280;40708;50.364;7.550;2023-05-21T02:32:44;100956.34;;;13.50;100.00
54808;BME280;40708;50.364;7.550;2023-05-21T02:35:10;100956.31;;;13.45;100.00
54808;BME280;40708;50.364;7.550;2023-05-21T02:37:36;100961.66;;;13.47;100.00
54808;BME280;40708;50.364;7.550;2023-05-21T02:40:03;100960.78;;;13.43;100.00
54808;BME280;40708;50.364;7.550;2023-05-21T02:42:32;100977.66;;;13.44;100.00
54808;BME280;40708;50.364;7.550;2023-05-21T02:44:58;100963.44;;;13.43;100.00
54808;BME280;40708;50.364;7.550;2023-05-21T02:47:24;100975.00;;;13.38;100.00
54808;BME280;40708;50.364;7.550;2023-05-21T02:49:50;100983.00;;;13.41;100.00
54808;BME280;40708;50.364;7.550;2023-05-21T02:52:17;100981.25;;;13.40;100.00
54808;BME280;40708;50.364;7.550;2023-05-21T02:54:43;100974.13;;;13.42;100.00
54808;BME280;40708;50.364;7.550;2023-05-21T02:57:08;100975.91;;;13.41;100.00
54808;BME280;40708;50.364;7.550;2023-05-21T02:59:33;100974.13;;;13.42;100.00
54808;BME280;40708;50.364;7.550;2023-05-21T03:01:59;100972.38;;;13.36;100.00
54808;BME280;40708;50.364;7.550;2023-05-21T03:04:24;100984.78;;;13.40;100.00
54808;BME280;40708;50.364;7.550;2023-05-21T03:06:52;100983.00;;;13.41;100.00
54808;BME280;40708;50.364;7.550;2023-05-21T03:09:19;100983.91;;;13.37;100.00
54808;BME280;40708;50.364;7.550;2023-05-21T03:11:46;100981.25;;;13.35;100.00
54808;BME280;40708;50.364;7.550;2023-05-21T03:14:11;100977.69;;;13.36;100.00
54808;BME280;40708;50.364;7.550;2023-05-21T03:16:36;100983.00;;;13.38;100.00
54808;BME280;40708;50.364;7.550;2023-05-21T03:19:02;100985.69;;;13.36;100.00
54808;BME280;40708;50.364;7.550;2023-05-21T03:21:27;100978.59;;;13.34;100.00
54808;BME280;40708;50.364;7.550;2023-05-21T03:23:54;100976.81;;;13.36;100.00
54808;BME280;40708;50.364;7.550;2023-05-21T03:26:23;100977.69;;;13.36;100.00
54808;BME280;40708;50.364;7.550;2023-05-21T03:28:48;100980.34;;;13.35;100.00
54808;BME280;40708;50.364;7.550;2023-05-21T03:31:13;100985.69;;;13.30;100.00
54808;BME280;40708;50.364;7.550;2023-05-21T03:33:39;100992.78;;;13.30;100.00
54808;BME280;40708;50.364;7.550;2023-05-21T03:36:04;100998.13;;;13.33;100.00
54808;BME280;40708;50.364;7.550;2023-05-21T03:38:29;100991.94;;;13.26;100.00
54808;BME280;40708;50.364;7.550;2023-05-21T03:40:55;100994.59;;;13.26;100.00
54808;BME280;40708;50.364;7.550;2023-05-21T03:43:20;100992.81;;;13.25;100.00
54808;BME280;40708;50.364;7.550;2023-05-21T03:45:45;100998.16;;;13.25;100.00
54808;BME280;40708;50.364;7.550;2023-05-21T03:48:10;101007.91;;;13.22;100.00
54808;BME280;40708;50.364;7.550;2023-05-21T03:50:36;101010.56;;;13.19;100.00
54808;BME280;40708;50.364;7.550;2023-05-21T03:53:01;101023.91;;;13.17;100.00
54808;BME280;40708;50.364;7.550;2023-05-21T03:55:26;101032.78;;;13.13;100.00
54808;BME280;40708;50.364;7.550;2023-05-21T03:57:52;101039.88;;;13.16;100.00
54808;BME280;40708;50.364;7.550;2023-05-21T04:00:17;101044.34;;;13.12;100.00
54808;BME280;40708;50.364;7.550;2023-05-21T04:02:42;101055.00;;;13.13;100.00
54808;BME280;40708;50.364;7.550;2023-05-21T04:05:08;101062.09;;;13.11;100.00
54808;BME280;40708;50.364;7.550;2023-05-21T04:07:33;101063.88;;;13.11;100.00
54808;BME280;40708;50.364;7.550;2023-05-21T04:09:58;101067.41;;;13.13;100.00
54808;BME280;40708;50.364;7.550;2023-05-21T04:12:24;101070.09;;;13.13;100.00
54808;BME280;40708;50.364;7.550;2023-05-21T04:14:49;101070.09;;;13.11;100.00
54808;BME280;40708;50.364;7.550;2023-05-21T04:17:15;101065.66;;;13.13;100.00
54808;BME280;40708;50.364;7.550;2023-05-21T04:19:41;101073.63;;;13.13;100.00
54808;BME280;40708;50.364;7.550;2023-05-21T04:22:06;101073.66;;;13.17;100.00
54808;BME280;40708;50.364;7.550;2023-05-21T04:24:31;101075.41;;;13.16;100.00
54808;BME280;40708;50.364;7.550;2023-05-21T04:26:56;101092.28;;;13.21;100.00
54808;BME280;40708;50.364;7.550;2023-05-21T04:29:28;101075.41;;;13.24;100.00
54808;BME280;40708;50.364;7.550;2023-05-21T04:31:55;101078.06;;;13.27;100.00
54808;BME280;40708;50.364;7.550;2023-05-21T04:34:20;101079.84;;;13.29;100.00
54808;BME280;40708;50.364;7.550;2023-05-21T04:36:46;101073.63;;;13.30;100.00
54808;BME280;40708;50.364;7.550;2023-05-21T04:39:11;101078.06;;;13.33;100.00
54808;BME280;40708;50.364;7.550;2023-05-21T04:41:37;101083.41;;;13.37;100.00
54808;BME280;40708;50.364;7.550;2023-05-21T04:44:06;101072.75;;;13.39;100.00
54808;BME280;40708;50.364;7.550;2023-05-21T04:46:34;101064.72;;;13.43;100.00
54808;BME280;40708;50.364;7.550;2023-05-21T04:49:00;101058.50;;;13.46;100.00
54808;BME280;40708;50.364;7.550;2023-05-21T04:51:27;101060.28;;;13.51;100.00
54808;BME280;40708;50.364;7.550;2023-05-21T04:53:53;101058.50;;;13.55;100.00
54808;BME280;40708;50.364;7.550;2023-05-21T04:56:18;101055.81;;;13.56;100.00
54808;BME280;40708;50.364;7.550;2023-05-21T04:58:45;101045.16;;;13.62;100.00
54808;BME280;40708;50.364;7.550;2023-05-21T05:01:12;101038.94;;;13.63;100.00
54808;BME280;40708;50.364;7.550;2023-05-21T05:03:37;101039.78;;;13.70;100.00
54808;BME280;40708;50.364;7.550;2023-05-21T05:06:03;101030.88;;;13.80;100.00
54808;BME280;40708;50.364;7.550;2023-05-21T05:08:28;101018.47;;;13.78;100.00
54808;BME280;40708;50.364;7.550;2023-05-21T05:10:54;101011.34;;;13.80;100.00
54808;BME280;40708;50.364;7.550;2023-05-21T05:13:19;101015.75;;;13.91;100.00
54808;BME280;40708;50.364;7.550;2023-05-21T05:15:45;101012.16;;;13.97;100.00
54808;BME280;40708;50.364;7.550;2023-05-21T05:18:11;101002.28;;;14.11;100.00
54808;BME280;40708;50.364;7.550;2023-05-21T05:20:36;100989.78;;;14.20;100.00
54808;BME280;40708;50.364;7.550;2023-05-21T05:23:01;100974.63;;;14.27;100.00
54808;BME280;40708;50.364;7.550;2023-05-21T05:25:27;100959.47;;;14.30;100.00
54808;BME280;40708;50.364;7.550;2023-05-21T05:27:52;100936.34;;;14.36;100.00
54808;BME280;40708;50.364;7.550;2023-05-21T05:30:17;100927.44;;;14.35;100.00
54808;BME280;40708;50.364;7.550;2023-05-21T05:32:42;100923.84;;;14.42;100.00
54808;BME280;40708;50.364;7.550;2023-05-21T05:35:08;100907.59;;;14.65;100.00
54808;BME280;40708;50.364;7.550;2023-05-21T05:37:34;100885.41;;;14.61;100.00
54808;BME280;40708;50.364;7.550;2023-05-21T05:39:59;100873.75;;;14.73;100.00
54808;BME280;40708;50.364;7.550;2023-05-21T05:42:24;100868.19;;;14.89;100.00
54808;BME280;40708;50.364;7.550;2023-05-21T05:44:50;100847.63;;;14.98;100.00
54808;BME280;40708;50.364;7.550;2023-05-21T05:47:15;100828.84;;;15.08;100.00
54808;BME280;40708;50.364;7.550;2023-05-21T05:49:40;100813.44;;;15.27;100.00
54808;BME280;40708;50.364;7.550;2023-05-21T05:52:06;100774.22;;;15.27;100.00
54808;BME280;40708;50.364;7.550;2023-05-21T05:54:31;100767.06;;;15.29;100.00
54808;BME280;40708;50.364;7.550;2023-05-21T05:56:56;100759.09;;;15.26;100.00
54808;BME280;40708;50.364;7.550;2023-05-21T05:59:22;100763.41;;;15.36;100.00
54808;BME280;40708;50.364;7.550;2023-05-21T06:01:47;100750.88;;;15.38;100.00
54808;BME280;40708;50.364;7.550;2023-05-21T06:04:12;100749.25;;;15.30;100.00
54808;BME280;40708;50.364;7.550;2023-05-21T06:06:37;100732.91;;;15.53;100.00
54808;BME280;40708;50.364;7.550;2023-05-21T06:09:03;100743.66;;;15.48;100.00
54808;BME280;40708;50.364;7.550;2023-05-21T06:11:28;100731.75;;;15.70;100.00
54808;BME280;40708;50.364;7.550;2023-05-21T06:13:53;100718.31;;;15.73;100.00
54808;BME280;40708;50.364;7.550;2023-05-21T06:16:19;100703.88;;;15.83;100.00
54808;BME280;40708;50.364;7.550;2023-05-21T06:18:44;100697.34;;;15.99;100.00
54808;BME280;40708;50.364;7.550;2023-05-21T06:21:09;100685.81;;;15.96;100.00
54808;BME280;40708;50.364;7.550;2023-05-21T06:23:34;100689.69;;;15.78;100.00
54808;BME280;40708;50.364;7.550;2023-05-21T06:26:02;100688.06;;;15.68;100.00
54808;BME280;40708;50.364;7.550;2023-05-21T06:28:27;100684.25;;;15.84;100.00
54808;BME280;40708;50.364;7.550;2023-05-21T06:30:52;100688.28;;;16.08;100.00
54808;BME280;40708;50.364;7.550;2023-05-21T06:33:18;100667.63;;;16.15;100.00
54808;BME280;40708;50.364;7.550;2023-05-21T06:35:43;100660.31;;;16.24;100.00
54808;BME280;40708;50.364;7.550;2023-05-21T06:38:08;100656.59;;;16.31;100.00
54808;BME280;40708;50.364;7.550;2023-05-21T06:40:34;100634.56;;;16.61;100.00
54808;BME280;40708;50.364;7.550;2023-05-21T06:42:59;100622.53;;;16.82;100.00
54808;BME280;40708;50.364;7.550;2023-05-21T06:45:24;100612.91;;;17.12;100.00
54808;BME280;40708;50.364;7.550;2023-05-21T06:47:50;100586.69;;;17.24;100.00
54808;BME280;40708;50.364;7.550;2023-05-21T06:50:15;100567.19;;;17.53;100.00
54808;BME280;40708;50.364;7.550;2023-05-21T06:52:40;100547.22;;;17.65;100.00
54808;BME280;40708;50.364;7.550;2023-05-21T06:55:06;100529.25;;;17.67;100.00
54808;BME280;40708;50.364;7.550;2023-05-21T06:57:32;100510.94;;;18.13;100.00
54808;BME280;40708;50.364;7.550;2023-05-21T06:59:57;100488.03;;;18.31;100.00
54808;BME280;40708;50.364;7.550;2023-05-21T07:02:22;100461.34;;;18.56;100.00
54808;BME280;40708;50.364;7.550;2023-05-21T07:04:47;100453.72;;;18.40;100.00
54808;BME280;40708;50.364;7.550;2023-05-21T07:07:13;100466.47;;;18.34;100.00
54808;BME280;40708;50.364;7.550;2023-05-21T07:09:38;100456.72;;;18.87;100.00
54808;BME280;40708;50.364;7.550;2023-05-21T07:12:03;100441.91;;;19.00;100.00
54808;BME280;40708;50.364;7.550;2023-05-21T07:14:29;100423.00;;;19.03;100.00
54808;BME280;40708;50.364;7.550;2023-05-21T07:16:54;100439.50;;;18.66;100.00
54808;BME280;40708;50.364;7.550;2023-05-21T07:19:19;100434.91;;;18.96;100.00
54808;BME280;40708;50.364;7.550;2023-05-21T07:21:45;100447.13;;;18.78;100.00
54808;BME280;40708;50.364;7.550;2023-05-21T07:24:10;100438.50;;;18.95;100.00
54808;BME280;40708;50.364;7.550;2023-05-21T07:26:35;100433.72;;;19.05;100.00
54808;BME280;40708;50.364;7.550;2023-05-21T07:29:01;100427.09;;;18.88;100.00
54808;BME280;40708;50.364;7.550;2023-05-21T07:31:26;100427.75;;;19.21;100.00
54808;BME280;40708;50.364;7.550;2023-05-21T07:33:51;100408.13;;;19.44;100.00
54808;BME280;40708;50.364;7.550;2023-05-21T07:36:17;100416.50;;;19.10;100.00
54808;BME280;40708;50.364;7.550;2023-05-21T07:38:43;100412.97;;;19.59;100.00
54808;BME280;40708;50.364;7.550;2023-05-21T07:41:08;100394.66;;;19.92;100.00
54808;BME280;40708;50.364;7.550;2023-05-21T07:43:34;100383.66;;;20.19;100.00
54808;BME280;40708;50.364;7.550;2023-05-21T07:46:00;100369.88;;;20.29;100.00
54808;BME280;40708;50.364;7.550;2023-05-21T07:48:25;100372.44;;;20.75;100.00
54808;BME280;40708;50.364;7.550;2023-05-21T07:50:51;100361.69;;;20.95;100.00
54808;BME280;40708;50.364;7.550;2023-05-21T07:53:17;100347.25;;;21.36;100.00
54808;BME280;40708;50.364;7.550;2023-05-21T07:55:42;100344.97;;;21.27;100.00
54808;BME280;40708;50.364;7.550;2023-05-21T07:58:14;100338.19;;;21.58;100.00
54808;BME280;40708;50.364;7.550;2023-05-21T08:00:43;100345.72;;;21.11;100.00
54808;BME280;40708;50.364;7.550;2023-05-21T08:03:09;100343.25;;;21.05;100.00
54808;BME280;40708;50.364;7.550;2023-05-21T08:05:36;100337.94;;;21.23;100.00
54808;BME280;40708;50.364;7.550;2023-05-21T08:08:01;100342.50;;;20.81;100.00
54808;BME280;40708;50.364;7.550;2023-05-21T08:10:26;100339.84;;;21.21;100.00
54808;BME280;40708;50.364;7.550;2023-05-21T08:12:51;100340.25;;;21.12;100.00
54808;BME280;40708;50.364;7.550;2023-05-21T08:15:17;100344.41;;;20.99;100.00
54808;BME280;40708;50.364;7.550;2023-05-21T08:17:42;100344.13;;;21.05;100.00
54808;BME280;40708;50.364;7.550;2023-05-21T08:20:08;100341.81;;;21.18;100.00
54808;BME280;40708;50.364;7.550;2023-05-21T08:22:33;100339.63;;;21.06;100.00
54808;BME280;40708;50.364;7.550;2023-05-21T08:24:58;100343.72;;;20.94;100.00
54808;BME280;40708;50.364;7.550;2023-05-21T08:27:23;100351.09;;;20.69;100.00
54808;BME280;40708;50.364;7.550;2023-05-21T08:29:49;100341.25;;;21.10;100.00
54808;BME280;40708;50.364;7.550;2023-05-21T08:32:14;100337.56;;;21.32;100.00
54808;BME280;40708;50.364;7.550;2023-05-21T08:34:39;100334.59;;;21.18;100.00
54808;BME280;40708;50.364;7.550;2023-05-21T08:37:04;100337.69;;;21.09;100.00
54808;BME280;40708;50.364;7.550;2023-05-21T08:39:30;100327.81;;;21.49;100.00
54808;BME280;40708;50.364;7.550;2023-05-21T08:42:01;100323.44;;;21.65;100.00
54808;BME280;40708;50.364;7.550;2023-05-21T08:44:32;100326.47;;;21.39;100.00
54808;BME280;40708;50.364;7.550;2023-05-21T08:46:58;100320.50;;;21.51;100.00
54808;BME280;40708;50.364;7.550;2023-05-21T08:49:25;100323.63;;;21.42;100.00
54808;BME280;40708;50.364;7.550;2023-05-21T08:51:52;100324.81;;;21.36;100.00
54808;BME280;40708;50.364;7.550;2023-05-21T08:54:17;100335.09;;;21.06;100.00
54808;BME280;40708;50.364;7.550;2023-05-21T08:56:42;100330.09;;;20.77;100.00
54808;BME280;40708;50.364;7.550;2023-05-21T08:59:11;100348.06;;;20.56;100.00
54808;BME280;40708;50.364;7.550;2023-05-21T09:01:37;100349.44;;;20.45;100.00
54808;BME280;40708;50.364;7.550;2023-05-21T09:04:06;100338.81;;;20.84;100.00
54808;BME280;40708;50.364;7.550;2023-05-21T09:06:32;100338.78;;;21.04;100.00
54808;BME280;40708;50.364;7.550;2023-05-21T09:09:05;100327.81;;;21.67;100.00
54808;BME280;40708;50.364;7.550;2023-05-21T09:11:33;100325.84;;;22.27;100.00
54808;BME280;40708;50.364;7.550;2023-05-21T09:13:59;100297.97;;;22.79;100.00
54808;BME280;40708;50.364;7.550;2023-05-21T09:16:25;100295.22;;;23.48;100.00
54808;BME280;40708;50.364;7.550;2023-05-21T09:18:50;100270.09;;;24.40;100.00
54808;BME280;40708;50.364;7.550;2023-05-21T09:21:23;100277.34;;;24.08;100.00
54808;BME280;40708;50.364;7.550;2023-05-21T09:23:57;100267.31;;;24.10;100.00
54808;BME280;40708;50.364;7.550;2023-05-21T09:26:23;100262.22;;;24.80;100.00
54808;BME280;40708;50.364;7.550;2023-05-21T09:28:50;100265.66;;;24.53;100.00
54808;BME280;40708;50.364;7.550;2023-05-21T09:31:16;100251.88;;;24.71;100.00
54808;BME280;40708;50.364;7.550;2023-05-21T09:33:45;100263.09;;;24.04;100.00
54808;BME280;40708;50.364;7.550;2023-05-21T09:36:14;100253.53;;;24.44;100.00
54808;BME280;40708;50.364;7.550;2023-05-21T09:38:39;100260.47;;;24.34;100.00
54808;BME280;40708;50.364;7.550;2023-05-21T09:41:05;100244.81;;;25.13;100.00
54808;BME280;40708;50.364;7.550;2023-05-21T09:43:33;100242.16;;;25.11;100.00
54808;BME280;40708;50.364;7.550;2023-05-21T09:45:59;100248.59;;;25.38;100.00
54808;BME280;40708;50.364;7.550;2023-05-21T09:48:42;100249.47;;;25.11;100.00
54808;BME280;40708;50.364;7.550;2023-05-21T09:51:09;100251.22;;;24.22;100.00
54808;BME280;40708;50.364;7.550;2023-05-21T09:53:35;100251.00;;;25.01;100.00
54808;BME280;40708;50.364;7.550;2023-05-21T09:56:01;100247.53;;;25.13;100.00
54808;BME280;40708;50.364;7.550;2023-05-21T09:58:27;100238.97;;;25.33;100.00
54808;BME280;40708;50.364;7.550;2023-05-21T10:00:53;100235.63;;;25.43;100.00
54808;BME280;40708;50.364;7.550;2023-05-21T10:03:22;100234.44;;;25.33;100.00
54808;BME280;40708;50.364;7.550;2023-05-21T10:05:48;100227.34;;;25.45;100.00
54808;BME280;40708;50.364;7.550;2023-05-21T10:08:17;100221.50;;;25.79;100.00
54808;BME280;40708;50.364;7.550;2023-05-21T10:10:48;100216.13;;;25.51;100.00
54808;BME280;40708;50.364;7.550;2023-05-21T10:13:17;100213.97;;;25.42;100.00
54808;BME280;40708;50.364;7.550;2023-05-21T10:15:47;100219.88;;;25.34;100.00
54808;BME280;40708;50.364;7.550;2023-05-21T10:18:14;100211.69;;;25.77;100.00
54808;BME280;40708;50.364;7.550;2023-05-21T10:20:41;100208.84;;;25.52;100.00
54808;BME280;40708;50.364;7.550;2023-05-21T10:23:07;100208.53;;;25.42;100.00
54808;BME280;40708;50.364;7.550;2023-05-21T10:25:32;100204.75;;;25.59;100.00
54808;BME280;40708;50.364;7.550;2023-05-21T10:27:58;100211.56;;;25.37;100.00
54808;BME280;40708;50.364;7.550;2023-05-21T10:30:24;100204.22;;;26.07;100.00
54808;BME280;40708;50.364;7.550;2023-05-21T10:32:50;100191.31;;;25.84;100.00
54808;BME280;40708;50.364;7.550;2023-05-21T10:35:16;100197.63;;;26.38;100.00
54808;BME280;40708;50.364;7.550;2023-05-21T10:37:44;100191.25;;;26.64;100.00
54808;BME280;40708;50.364;7.550;2023-05-21T10:40:11;100190.72;;;26.59;100.00
54808;BME280;40708;50.364;7.550;2023-05-21T10:48:42;100172.91;;;26.28;100.00
54808;BME280;40708;50.364;7.550;2023-05-21T10:51:25;100170.47;;;26.63;100.00
54808;BME280;40708;50.364;7.550;2023-05-21T10:56:52;100168.22;;;27.07;100.00
54808;BME280;40708;50.364;7.550;2023-05-21T11:01:53;100167.25;;;26.96;100.00
54808;BME280;40708;50.364;7.550;2023-05-21T11:04:26;100160.09;;;26.55;100.00
54808;BME280;40708;50.364;7.550;2023-05-21T11:06:52;100161.03;;;26.81;100.00
54808;BME280;40708;50.364;7.550;2023-05-21T11:09:17;100159.56;;;26.50;100.00
54808;BME280;40708;50.364;7.550;2023-05-21T11:11:45;100149.19;;;26.82;100.00
54808;BME280;40708;50.364;7.550;2023-05-21T11:14:28;100158.16;;;26.70;100.00
54808;BME280;40708;50.364;7.550;2023-05-21T11:16:56;100156.91;;;26.24;100.00
54808;BME280;40708;50.364;7.550;2023-05-21T11:19:31;100149.38;;;26.15;100.00
54808;BME280;40708;50.364;7.550;2023-05-21T11:21:57;100151.06;;;26.03;100.00
54808;BME280;40708;50.364;7.550;2023-05-21T11:24:23;100147.91;;;25.82;100.00
54808;BME280;40708;50.364;7.550;2023-05-21T11:29:16;100149.06;;;25.92;100.00
54808;BME280;40708;50.364;7.550;2023-05-21T11:31:59;100146.91;;;25.97;100.00
54808;BME280;40708;50.364;7.550;2023-05-21T11:34:46;100143.09;;;26.27;100.00
54808;BME280;40708;50.364;7.550;2023-05-21T11:39:50;100140.97;;;26.57;100.00
54808;BME280;40708;50.364;7.550;2023-05-21T11:44:55;100138.47;;;26.67;100.00
54808;BME280;40708;50.364;7.550;2023-05-21T11:47:21;100139.44;;;26.53;100.00
54808;BME280;40708;50.364;7.550;2023-05-21T11:49:47;100137.59;;;26.41;100.00
54808;BME280;40708;50.364;7.550;2023-05-21T11:52:13;100131.84;;;26.83;100.00
54808;BME280;40708;50.364;7.550;2023-05-21T11:57:11;100124.56;;;26.84;100.00
54808;BME280;40708;50.364;7.550;2023-05-21T11:59:36;100114.94;;;27.16;100.00
54808;BME280;40708;50.364;7.550;2023-05-21T12:02:03;100119.22;;;27.56;100.00
54808;BME280;40708;50.364;7.550;2023-05-21T12:04:33;100115.59;;;27.07;100.00
54808;BME280;40708;50.364;7.550;2023-05-21T12:07:05;100114.53;;;26.97;100.00
54808;BME280;40708;50.364;7.550;2023-05-21T12:09:44;100120.81;;;27.23;100.00
54808;BME280;40708;50.364;7.550;2023-05-21T12:12:11;100115.28;;;27.11;100.00
54808;BME280;40708;50.364;7.550;2023-05-21T12:14:43;100118.88;;;27.12;100.00
54808;BME280;40708;50.364;7.550;2023-05-21T12:17:09;100110.91;;;27.22;100.00
54808;BME280;40708;50.364;7.550;2023-05-21T12:19:37;100104.19;;;26.89;100.00
54808;BME280;40708;50.364;7.550;2023-05-21T12:22:03;100113.00;;;27.05;100.00
54808;BME280;40708;50.364;7.550;2023-05-21T12:24:30;100121.63;;;26.74;100.00
54808;BME280;40708;50.364;7.550;2023-05-21T12:26:59;100105.38;;;27.10;100.00
54808;BME280;40708;50.364;7.550;2023-05-21T12:29:29;100110.41;;;27.53;100.00
54808;BME280;40708;50.364;7.550;2023-05-21T12:31:58;100108.75;;;27.63;100.00
54808;BME280;40708;50.364;7.550;2023-05-21T12:34:41;100106.41;;;27.33;100.00
54808;BME280;40708;50.364;7.550;2023-05-21T12:37:10;100102.47;;;27.50;100.00
54808;BME280;40708;50.364;7.550;2023-05-21T12:39:37;100101.66;;;27.84;100.00
54808;BME280;40708;50.364;7.550;2023-05-21T12:42:04;100093.41;;;27.97;100.00
54808;BME280;40708;50.364;7.550;2023-05-21T12:44:30;100093.84;;;27.80;100.00
54808;BME280;40708;50.364;7.550;2023-05-21T12:46:56;100093.41;;;27.97;100.00
54808;BME280;40708;50.364;7.550;2023-05-21T12:49:57;100096.16;;;28.20;100.00
54808;BME280;40708;50.364;7.550;2023-05-21T12:52:23;100087.84;;;28.33;100.00
54808;BME280;40708;50.364;7.550;2023-05-21T12:54:51;100081.75;;;29.20;100.00
54808;BME280;40708;50.364;7.550;2023-05-21T12:57:18;100091.94;;;29.07;100.00
54808;BME280;40708;50.364;7.550;2023-05-21T12:59:49;100074.31;;;28.66;100.00